Airfield :
LOGIN :

Register | Disclaimer

   EN    FR    IT 

 










Legend :    VFR   Marginal VFR   IFR   Intensive IFR   Very Intensive IFR
Visi :
Ceiling :
>= 8 km
>= 3000ft
5 to 8 km
1000 to 3000 ft
1500m to 5 km
500 to 1000 ft
800 to 1500m
200 to 500 ft
< 800m
< 200 ft
Symbols :   Thunderstorms  Fog  Heavy snow  Heavy precipitations  Wind > 20 kt
SIGMETs :     Misc.  Thunderstorms  Icing  Turbulence  Mountain Waves  Volcanic Ashes






- Airport Elevation : 622 ft
- IATA code : BRS


EGGD - Bristol Int.

CURRENT METAR :
  • 162350Z AUTO 21010KT 9999 FEW039 BKN046 04/01 Q1004

EXPIRED METARs :
  • 162320Z AUTO 22012KT 9999 BKN036 BKN044 04/01 Q1004
  • 162250Z AUTO 23016KT 9999 OVC038 05/01 Q1003
  • 162220Z AUTO 23014KT 9999 BKN034 BKN045 04/01 Q1003
  • 162150Z AUTO 23013KT 9999 BKN033 BKN046 03/01 Q1002
  • 162120Z AUTO 24017KT 9999 FEW008/// BKN019/// BKN045/// //////CB 02/02 Q1002 RESHRA RERA

TAF TAF EGGD
Valid from the 17 at 00:00 until the 18 at 00:00 UTC


162254Z 1700/1724 23015KT 9999 BKN035
TEMPO 1700/1715 24022G35KT 6000 SHRA
PROB30
TEMPO 1700/1715 4000 +SHRA +TSRAGS BKN008 BKN020CB
PROB40
TEMPO 1715/1724 28020G30KT 6000 SHRA
ATIS : +44 1275 473 666



MET'MAP, your aeronautical weather chart ! - Copyright ORBIFLY December 2007 - Disclaimer

ORBIFLY MET'MAP TEAM :

Programming & Development : Alexandra Zaïnal
Concept & original design : Baudouin d'Aumeries
Assistance for programming : Marc-Olivier Méhu
Technical & hardware support : Manuel Goepfert

Contact : metmap@orbifly.com




SOURCES & CREDITS :

   NOAA